KBBW/BBW METAR and TAF weather

Enter ICAO airport designator
Station Type Date Time Source
KBBW METAR 2019/12/14 11:11 UTC NOAA

KBBW 141111Z AUTO 01010KT 10SM OVC004 M05/M07 A2991 RMK AO2 T10501072


Station Type Date Time Source
KBBW Decoded METAR 2019/12/14 11:11 UTC NOAA

BROKEN BOW MUNICIPAL AIRPORT, NE, United States (KBBW) 41-26N 099-38W
Dec 14, 2019 - 06:11 AM EST / 2019.12.14 1111 UTC
Wind: from the N (010 degrees) at 12 MPH (10 KT):0
Visibility: 10 mile(s):0
Sky conditions: overcast
Temperature: 23.0 F (-5.0 C)
Windchill: 12 F (-11 C):1
Dew Point: 19.0 F (-7.2 C)
Relative Humidity: 84%
Pressure (altimeter): 29.91 in. Hg (1012 hPa)
ob: KBBW 141111Z AUTO 01010KT 10SM OVC004 M05/M07 A2991 RMK AO2 T10501072
cycle: 11

Station Type Date Time Source
KBBW TAF UTC NOAA

Error!

Example: see airport list